sensor_id;sensor_type;location;lat;lon;timestamp;P1;durP1;ratioP1;P2;durP2;ratioP2
21729;SDS011;11027;51.030;13.812;2023-11-19T00:00:09;9.60;;;7.32;;
21729;SDS011;11027;51.030;13.812;2023-11-19T00:02:37;9.52;;;7.28;;
21729;SDS011;11027;51.030;13.812;2023-11-19T00:05:03;10.35;;;7.75;;
21729;SDS011;11027;51.030;13.812;2023-11-19T00:07:29;12.20;;;7.90;;
21729;SDS011;11027;51.030;13.812;2023-11-19T00:09:54;10.75;;;7.65;;
21729;SDS011;11027;51.030;13.812;2023-11-19T00:12:20;11.60;;;7.78;;
21729;SDS011;11027;51.030;13.812;2023-11-19T00:14:45;11.77;;;7.60;;
21729;SDS011;11027;51.030;13.812;2023-11-19T00:17:10;10.98;;;7.80;;
21729;SDS011;11027;51.030;13.812;2023-11-19T00:19:36;11.80;;;8.02;;
21729;SDS011;11027;51.030;13.812;2023-11-19T00:22:01;10.45;;;8.20;;
21729;SDS011;11027;51.030;13.812;2023-11-19T00:24:28;11.43;;;8.05;;
21729;SDS011;11027;51.030;13.812;2023-11-19T00:26:53;11.60;;;8.10;;
21729;SDS011;11027;51.030;13.812;2023-11-19T00:29:19;10.63;;;8.13;;
21729;SDS011;11027;51.030;13.812;2023-11-19T00:31:45;10.80;;;8.23;;
21729;SDS011;11027;51.030;13.812;2023-11-19T00:34:10;11.52;;;7.75;;
21729;SDS011;11027;51.030;13.812;2023-11-19T00:36:35;10.07;;;7.82;;
21729;SDS011;11027;51.030;13.812;2023-11-19T00:39:01;12.60;;;8.25;;
21729;SDS011;11027;51.030;13.812;2023-11-19T00:41:26;11.25;;;8.38;;
21729;SDS011;11027;51.030;13.812;2023-11-19T00:43:51;11.77;;;7.90;;
21729;SDS011;11027;51.030;13.812;2023-11-19T00:46:17;9.70;;;7.45;;
21729;SDS011;11027;51.030;13.812;2023-11-19T00:48:42;9.57;;;7.35;;
21729;SDS011;11027;51.030;13.812;2023-11-19T00:51:08;9.60;;;7.40;;
21729;SDS011;11027;51.030;13.812;2023-11-19T00:53:33;10.77;;;7.15;;
21729;SDS011;11027;51.030;13.812;2023-11-19T00:55:59;10.57;;;7.20;;
21729;SDS011;11027;51.030;13.812;2023-11-19T00:58:24;8.52;;;7.20;;
21729;SDS011;11027;51.030;13.812;2023-11-19T01:00:49;9.77;;;7.63;;
21729;SDS011;11027;51.030;13.812;2023-11-19T01:03:15;10.18;;;7.57;;
21729;SDS011;11027;51.030;13.812;2023-11-19T01:05:43;9.02;;;6.72;;
21729;SDS011;11027;51.030;13.812;2023-11-19T01:08:09;9.98;;;7.63;;
21729;SDS011;11027;51.030;13.812;2023-11-19T01:10:36;9.63;;;6.97;;
21729;SDS011;11027;51.030;13.812;2023-11-19T01:13:02;9.18;;;7.00;;
21729;SDS011;11027;51.030;13.812;2023-11-19T01:15:30;8.95;;;7.00;;
21729;SDS011;11027;51.030;13.812;2023-11-19T01:17:56;8.27;;;6.35;;
21729;SDS011;11027;51.030;13.812;2023-11-19T01:20:21;9.00;;;6.28;;
21729;SDS011;11027;51.030;13.812;2023-11-19T01:22:47;9.00;;;6.40;;
21729;SDS011;11027;51.030;13.812;2023-11-19T01:25:13;8.00;;;6.30;;
21729;SDS011;11027;51.030;13.812;2023-11-19T01:27:38;8.50;;;6.00;;
21729;SDS011;11027;51.030;13.812;2023-11-19T01:30:04;7.95;;;6.07;;
21729;SDS011;11027;51.030;13.812;2023-11-19T01:32:30;7.00;;;5.43;;
21729;SDS011;11027;51.030;13.812;2023-11-19T01:34:56;7.20;;;5.47;;
21729;SDS011;11027;51.030;13.812;2023-11-19T01:37:21;7.00;;;5.47;;
21729;SDS011;11027;51.030;13.812;2023-11-19T01:39:46;6.57;;;4.80;;
21729;SDS011;11027;51.030;13.812;2023-11-19T01:42:11;6.47;;;5.45;;
21729;SDS011;11027;51.030;13.812;2023-11-19T01:44:37;6.13;;;4.93;;
21729;SDS011;11027;51.030;13.812;2023-11-19T01:47:03;6.90;;;5.22;;
21729;SDS011;11027;51.030;13.812;2023-11-19T01:49:29;5.53;;;4.78;;
21729;SDS011;11027;51.030;13.812;2023-11-19T01:51:57;5.80;;;4.65;;
21729;SDS011;11027;51.030;13.812;2023-11-19T01:54:23;6.05;;;4.75;;
21729;SDS011;11027;51.030;13.812;2023-11-19T01:56:48;6.18;;;4.70;;
21729;SDS011;11027;51.030;13.812;2023-11-19T01:59:14;5.57;;;4.20;;
21729;SDS011;11027;51.030;13.812;2023-11-19T02:01:40;4.72;;;4.18;;
21729;SDS011;11027;51.030;13.812;2023-11-19T02:04:07;5.22;;;3.90;;
21729;SDS011;11027;51.030;13.812;2023-11-19T02:06:33;4.90;;;4.18;;
21729;SDS011;11027;51.030;13.812;2023-11-19T02:09:00;4.93;;;3.90;;
21729;SDS011;11027;51.030;13.812;2023-11-19T02:11:26;4.00;;;3.60;;
21729;SDS011;11027;51.030;13.812;2023-11-19T02:13:54;5.18;;;3.70;;
21729;SDS011;11027;51.030;13.812;2023-11-19T02:16:20;4.40;;;3.55;;
21729;SDS011;11027;51.030;13.812;2023-11-19T02:18:46;3.70;;;3.30;;
21729;SDS011;11027;51.030;13.812;2023-11-19T02:21:11;3.70;;;2.88;;
21729;SDS011;11027;51.030;13.812;2023-11-19T02:23:36;3.97;;;3.08;;
21729;SDS011;11027;51.030;13.812;2023-11-19T02:26:03;3.40;;;3.10;;
21729;SDS011;11027;51.030;13.812;2023-11-19T02:28:38;3.30;;;2.88;;
21729;SDS011;11027;51.030;13.812;2023-11-19T02:31:05;5.45;;;2.92;;
21729;SDS011;11027;51.030;13.812;2023-11-19T02:33:31;3.13;;;2.80;;
21729;SDS011;11027;51.030;13.812;2023-11-19T02:35:56;3.22;;;2.70;;
21729;SDS011;11027;51.030;13.812;2023-11-19T02:38:21;4.32;;;2.70;;
21729;SDS011;11027;51.030;13.812;2023-11-19T02:40:47;3.28;;;2.72;;
21729;SDS011;11027;51.030;13.812;2023-11-19T02:43:14;4.57;;;2.63;;
21729;SDS011;11027;51.030;13.812;2023-11-19T02:45:39;2.75;;;2.10;;
21729;SDS011;11027;51.030;13.812;2023-11-19T02:48:05;5.72;;;2.25;;
21729;SDS011;11027;51.030;13.812;2023-11-19T02:50:31;2.53;;;2.17;;
21729;SDS011;11027;51.030;13.812;2023-11-19T02:52:57;3.92;;;2.28;;
21729;SDS011;11027;51.030;13.812;2023-11-19T02:55:22;2.40;;;2.20;;
21729;SDS011;11027;51.030;13.812;2023-11-19T02:57:49;2.10;;;1.88;;
21729;SDS011;11027;51.030;13.812;2023-11-19T03:00:18;2.72;;;2.00;;
21729;SDS011;11027;51.030;13.812;2023-11-19T03:02:48;2.63;;;2.20;;
21729;SDS011;11027;51.030;13.812;2023-11-19T03:05:23;2.42;;;2.00;;
21729;SDS011;11027;51.030;13.812;2023-11-19T03:07:49;3.35;;;1.88;;
21729;SDS011;11027;51.030;13.812;2023-11-19T03:10:15;2.45;;;2.08;;
21729;SDS011;11027;51.030;13.812;2023-11-19T03:12:40;2.00;;;1.80;;
21729;SDS011;11027;51.030;13.812;2023-11-19T03:15:06;2.30;;;1.92;;
21729;SDS011;11027;51.030;13.812;2023-11-19T03:17:35;2.67;;;1.75;;
21729;SDS011;11027;51.030;13.812;2023-11-19T03:20:01;1.85;;;1.65;;
21729;SDS011;11027;51.030;13.812;2023-11-19T03:22:26;2.22;;;1.75;;
21729;SDS011;11027;51.030;13.812;2023-11-19T03:24:52;2.08;;;1.75;;
21729;SDS011;11027;51.030;13.812;2023-11-19T03:27:17;2.55;;;1.67;;
21729;SDS011;11027;51.030;13.812;2023-11-19T03:29:42;2.83;;;1.80;;
21729;SDS011;11027;51.030;13.812;2023-11-19T03:32:08;2.28;;;1.85;;
21729;SDS011;11027;51.030;13.812;2023-11-19T03:34:33;2.22;;;1.70;;
21729;SDS011;11027;51.030;13.812;2023-11-19T03:36:58;2.67;;;1.80;;
21729;SDS011;11027;51.030;13.812;2023-11-19T03:39:24;4.55;;;2.10;;
21729;SDS011;11027;51.030;13.812;2023-11-19T03:41:50;4.70;;;1.85;;
21729;SDS011;11027;51.030;13.812;2023-11-19T03:44:15;3.55;;;1.88;;
21729;SDS011;11027;51.030;13.812;2023-11-19T03:46:41;2.55;;;1.80;;
21729;SDS011;11027;51.030;13.812;2023-11-19T03:49:06;1.88;;;1.77;;
21729;SDS011;11027;51.030;13.812;2023-11-19T03:51:32;2.65;;;2.10;;
21729;SDS011;11027;51.030;13.812;2023-11-19T03:53:57;3.20;;;2.53;;
21729;SDS011;11027;51.030;13.812;2023-11-19T03:56:23;2.53;;;2.20;;
21729;SDS011;11027;51.030;13.812;2023-11-19T03:58:48;2.40;;;2.13;;
21729;SDS011;11027;51.030;13.812;2023-11-19T04:01:13;2.95;;;2.40;;
21729;SDS011;11027;51.030;13.812;2023-11-19T04:03:39;2.88;;;2.53;;
21729;SDS011;11027;51.030;13.812;2023-11-19T04:06:04;4.43;;;2.97;;
21729;SDS011;11027;51.030;13.812;2023-11-19T04:08:30;2.47;;;2.25;;
21729;SDS011;11027;51.030;13.812;2023-11-19T04:10:55;3.65;;;2.80;;
21729;SDS011;11027;51.030;13.812;2023-11-19T04:13:20;4.75;;;3.28;;
21729;SDS011;11027;51.030;13.812;2023-11-19T04:15:46;2.88;;;2.58;;
21729;SDS011;11027;51.030;13.812;2023-11-19T04:18:11;5.35;;;2.72;;
21729;SDS011;11027;51.030;13.812;2023-11-19T04:20:36;3.45;;;3.08;;
21729;SDS011;11027;51.030;13.812;2023-11-19T04:23:02;3.63;;;2.80;;
21729;SDS011;11027;51.030;13.812;2023-11-19T04:25:27;2.75;;;2.55;;
21729;SDS011;11027;51.030;13.812;2023-11-19T04:27:52;6.03;;;2.75;;
21729;SDS011;11027;51.030;13.812;2023-11-19T04:30:18;5.22;;;2.70;;
21729;SDS011;11027;51.030;13.812;2023-11-19T04:32:43;3.13;;;2.78;;
21729;SDS011;11027;51.030;13.812;2023-11-19T04:35:09;3.10;;;2.80;;
21729;SDS011;11027;51.030;13.812;2023-11-19T04:37:34;2.95;;;2.65;;
21729;SDS011;11027;51.030;13.812;2023-11-19T04:40:00;3.05;;;2.70;;
21729;SDS011;11027;51.030;13.812;2023-11-19T04:42:25;2.83;;;2.55;;
21729;SDS011;11027;51.030;13.812;2023-11-19T04:44:50;4.07;;;3.05;;
21729;SDS011;11027;51.030;13.812;2023-11-19T04:47:16;8.00;;;2.70;;
21729;SDS011;11027;51.030;13.812;2023-11-19T04:49:41;3.85;;;2.58;;
21729;SDS011;11027;51.030;13.812;2023-11-19T04:52:09;3.22;;;2.88;;
21729;SDS011;11027;51.030;13.812;2023-11-19T04:54:34;3.95;;;3.15;;
21729;SDS011;11027;51.030;13.812;2023-11-19T04:56:59;3.53;;;2.90;;
21729;SDS011;11027;51.030;13.812;2023-11-19T04:59:25;3.80;;;2.95;;
21729;SDS011;11027;51.030;13.812;2023-11-19T05:01:50;3.60;;;3.10;;
21729;SDS011;11027;51.030;13.812;2023-11-19T05:04:15;3.85;;;3.20;;
21729;SDS011;11027;51.030;13.812;2023-11-19T05:06:41;6.32;;;3.05;;
21729;SDS011;11027;51.030;13.812;2023-11-19T05:09:06;4.10;;;3.00;;
21729;SDS011;11027;51.030;13.812;2023-11-19T05:11:35;4.45;;;3.13;;
21729;SDS011;11027;51.030;13.812;2023-11-19T05:14:04;5.30;;;3.10;;
21729;SDS011;11027;51.030;13.812;2023-11-19T05:16:29;3.85;;;3.25;;
21729;SDS011;11027;51.030;13.812;2023-11-19T05:18:55;4.15;;;3.10;;
21729;SDS011;11027;51.030;13.812;2023-11-19T05:21:20;3.58;;;3.00;;
21729;SDS011;11027;51.030;13.812;2023-11-19T05:23:46;5.13;;;3.50;;
21729;SDS011;11027;51.030;13.812;2023-11-19T05:26:17;5.63;;;4.00;;
21729;SDS011;11027;51.030;13.812;2023-11-19T05:31:08;5.20;;;3.90;;
21729;SDS011;11027;51.030;13.812;2023-11-19T05:33:34;4.68;;;3.85;;
21729;SDS011;11027;51.030;13.812;2023-11-19T05:35:59;6.50;;;4.20;;
21729;SDS011;11027;51.030;13.812;2023-11-19T05:38:24;7.28;;;4.20;;
21729;SDS011;11027;51.030;13.812;2023-11-19T05:40:49;7.18;;;4.10;;
21729;SDS011;11027;51.030;13.812;2023-11-19T05:43:15;6.95;;;4.40;;
21729;SDS011;11027;51.030;13.812;2023-11-19T05:45:41;7.95;;;4.90;;
21729;SDS011;11027;51.030;13.812;2023-11-19T05:48:07;5.47;;;4.82;;
21729;SDS011;11027;51.030;13.812;2023-11-19T05:50:33;6.25;;;5.43;;
21729;SDS011;11027;51.030;13.812;2023-11-19T05:52:59;6.15;;;5.18;;
21729;SDS011;11027;51.030;13.812;2023-11-19T05:55:24;6.90;;;4.90;;
21729;SDS011;11027;51.030;13.812;2023-11-19T05:57:49;7.57;;;4.97;;
21729;SDS011;11027;51.030;13.812;2023-11-19T06:00:16;5.60;;;5.00;;
21729;SDS011;11027;51.030;13.812;2023-11-19T06:02:43;6.45;;;4.43;;
21729;SDS011;11027;51.030;13.812;2023-11-19T06:05:08;4.88;;;4.30;;
21729;SDS011;11027;51.030;13.812;2023-11-19T06:07:34;5.20;;;4.50;;
21729;SDS011;11027;51.030;13.812;2023-11-19T06:10:01;5.50;;;3.97;;
21729;SDS011;11027;51.030;13.812;2023-11-19T06:12:27;4.50;;;3.92;;
21729;SDS011;11027;51.030;13.812;2023-11-19T06:14:53;4.65;;;3.97;;
21729;SDS011;11027;51.030;13.812;2023-11-19T06:17:18;4.10;;;3.67;;
21729;SDS011;11027;51.030;13.812;2023-11-19T06:19:43;4.15;;;3.75;;
21729;SDS011;11027;51.030;13.812;2023-11-19T06:22:09;3.75;;;3.38;;
21729;SDS011;11027;51.030;13.812;2023-11-19T06:24:35;4.20;;;3.78;;
21729;SDS011;11027;51.030;13.812;2023-11-19T06:27:01;3.83;;;3.50;;
21729;SDS011;11027;51.030;13.812;2023-11-19T06:29:26;4.00;;;3.60;;
21729;SDS011;11027;51.030;13.812;2023-11-19T06:31:52;4.03;;;3.25;;
21729;SDS011;11027;51.030;13.812;2023-11-19T06:34:17;4.05;;;3.28;;
21729;SDS011;11027;51.030;13.812;2023-11-19T06:36:43;3.53;;;3.22;;
21729;SDS011;11027;51.030;13.812;2023-11-19T06:39:11;3.45;;;3.00;;
21729;SDS011;11027;51.030;13.812;2023-11-19T06:41:36;3.13;;;2.83;;
21729;SDS011;11027;51.030;13.812;2023-11-19T06:44:04;3.53;;;3.20;;
21729;SDS011;11027;51.030;13.812;2023-11-19T06:46:30;3.28;;;2.97;;
21729;SDS011;11027;51.030;13.812;2023-11-19T06:48:56;4.50;;;2.80;;
21729;SDS011;11027;51.030;13.812;2023-11-19T06:51:21;3.50;;;2.63;;
21729;SDS011;11027;51.030;13.812;2023-11-19T06:53:47;2.60;;;2.40;;
21729;SDS011;11027;51.030;13.812;2023-11-19T06:56:21;2.50;;;2.30;;
21729;SDS011;11027;51.030;13.812;2023-11-19T06:58:48;2.58;;;1.95;;
21729;SDS011;11027;51.030;13.812;2023-11-19T07:01:14;2.10;;;1.90;;
21729;SDS011;11027;51.030;13.812;2023-11-19T07:03:40;3.90;;;1.80;;
21729;SDS011;11027;51.030;13.812;2023-11-19T07:06:05;1.80;;;1.70;;
21729;SDS011;11027;51.030;13.812;2023-11-19T07:08:31;2.05;;;1.80;;
21729;SDS011;11027;51.030;13.812;2023-11-19T07:10:56;1.95;;;1.70;;
21729;SDS011;11027;51.030;13.812;2023-11-19T07:13:21;1.90;;;1.80;;
21729;SDS011;11027;51.030;13.812;2023-11-19T07:15:47;2.03;;;1.70;;
21729;SDS011;11027;51.030;13.812;2023-11-19T07:18:12;2.03;;;1.85;;
21729;SDS011;11027;51.030;13.812;2023-11-19T07:20:37;2.03;;;1.80;;
21729;SDS011;11027;51.030;13.812;2023-11-19T07:23:04;4.65;;;1.60;;
21729;SDS011;11027;51.030;13.812;2023-11-19T07:25:29;2.30;;;2.05;;
21729;SDS011;11027;51.030;13.812;2023-11-19T07:27:54;2.20;;;1.85;;
21729;SDS011;11027;51.030;13.812;2023-11-19T07:30:19;2.40;;;2.05;;
21729;SDS011;11027;51.030;13.812;2023-11-19T07:32:45;2.03;;;1.80;;
21729;SDS011;11027;51.030;13.812;2023-11-19T07:35:10;2.00;;;1.77;;
21729;SDS011;11027;51.030;13.812;2023-11-19T07:37:36;2.08;;;1.70;;
21729;SDS011;11027;51.030;13.812;2023-11-19T07:40:02;2.63;;;2.10;;
21729;SDS011;11027;51.030;13.812;2023-11-19T07:42:28;2.38;;;1.92;;
21729;SDS011;11027;51.030;13.812;2023-11-19T07:44:54;3.70;;;1.80;;
21729;SDS011;11027;51.030;13.812;2023-11-19T07:47:21;1.70;;;1.60;;
21729;SDS011;11027;51.030;13.812;2023-11-19T07:49:48;1.80;;;1.67;;
21729;SDS011;11027;51.030;13.812;2023-11-19T07:52:13;2.97;;;1.83;;
21729;SDS011;11027;51.030;13.812;2023-11-19T07:54:38;2.22;;;1.88;;
21729;SDS011;11027;51.030;13.812;2023-11-19T07:57:04;2.67;;;1.83;;
21729;SDS011;11027;51.030;13.812;2023-11-19T07:59:29;3.70;;;2.20;;
21729;SDS011;11027;51.030;13.812;2023-11-19T08:01:54;2.15;;;1.95;;
21729;SDS011;11027;51.030;13.812;2023-11-19T08:04:20;2.47;;;1.70;;
21729;SDS011;11027;51.030;13.812;2023-11-19T08:06:45;2.03;;;1.83;;
21729;SDS011;11027;51.030;13.812;2023-11-19T08:09:10;3.45;;;1.83;;
21729;SDS011;11027;51.030;13.812;2023-11-19T08:11:38;2.72;;;2.08;;
21729;SDS011;11027;51.030;13.812;2023-11-19T08:14:05;2.20;;;2.00;;
21729;SDS011;11027;51.030;13.812;2023-11-19T08:16:30;1.75;;;1.65;;
21729;SDS011;11027;51.030;13.812;2023-11-19T08:18:55;2.08;;;1.85;;
21729;SDS011;11027;51.030;13.812;2023-11-19T08:21:23;3.28;;;1.80;;
21729;SDS011;11027;51.030;13.812;2023-11-19T08:23:48;2.58;;;1.90;;
21729;SDS011;11027;51.030;13.812;2023-11-19T08:26:14;2.05;;;1.85;;
21729;SDS011;11027;51.030;13.812;2023-11-19T08:28:40;3.78;;;2.30;;
21729;SDS011;11027;51.030;13.812;2023-11-19T08:31:05;2.80;;;2.10;;
21729;SDS011;11027;51.030;13.812;2023-11-19T08:33:31;2.55;;;2.00;;
21729;SDS011;11027;51.030;13.812;2023-11-19T08:35:56;3.55;;;3.13;;
21729;SDS011;11027;51.030;13.812;2023-11-19T08:38:23;3.88;;;3.42;;
21729;SDS011;11027;51.030;13.812;2023-11-19T08:40:48;3.58;;;3.00;;
21729;SDS011;11027;51.030;13.812;2023-11-19T08:43:14;3.25;;;2.95;;
21729;SDS011;11027;51.030;13.812;2023-11-19T08:45:39;4.00;;;2.28;;
21729;SDS011;11027;51.030;13.812;2023-11-19T08:48:05;3.03;;;2.65;;
21729;SDS011;11027;51.030;13.812;2023-11-19T08:50:30;2.42;;;2.20;;
21729;SDS011;11027;51.030;13.812;2023-11-19T08:52:55;2.00;;;1.60;;
21729;SDS011;11027;51.030;13.812;2023-11-19T08:55:21;2.10;;;1.90;;
21729;SDS011;11027;51.030;13.812;2023-11-19T08:57:46;1.90;;;1.52;;
21729;SDS011;11027;51.030;13.812;2023-11-19T09:00:11;2.05;;;1.67;;
21729;SDS011;11027;51.030;13.812;2023-11-19T09:02:39;2.08;;;1.88;;
21729;SDS011;11027;51.030;13.812;2023-11-19T09:05:05;4.88;;;2.00;;
21729;SDS011;11027;51.030;13.812;2023-11-19T09:07:32;4.43;;;1.95;;
21729;SDS011;11027;51.030;13.812;2023-11-19T09:09:57;1.92;;;1.73;;
21729;SDS011;11027;51.030;13.812;2023-11-19T09:12:23;3.05;;;1.90;;
21729;SDS011;11027;51.030;13.812;2023-11-19T09:14:48;3.30;;;1.80;;
21729;SDS011;11027;51.030;13.812;2023-11-19T09:17:14;2.65;;;2.20;;
21729;SDS011;11027;51.030;13.812;2023-11-19T09:19:39;4.50;;;2.33;;
21729;SDS011;11027;51.030;13.812;2023-11-19T09:22:04;7.03;;;5.07;;
21729;SDS011;11027;51.030;13.812;2023-11-19T09:24:30;3.60;;;2.90;;
21729;SDS011;11027;51.030;13.812;2023-11-19T09:26:55;3.15;;;2.00;;
21729;SDS011;11027;51.030;13.812;2023-11-19T09:29:21;2.28;;;1.50;;
21729;SDS011;11027;51.030;13.812;2023-11-19T09:31:46;3.20;;;1.70;;
21729;SDS011;11027;51.030;13.812;2023-11-19T09:34:11;4.65;;;2.33;;
21729;SDS011;11027;51.030;13.812;2023-11-19T09:36:37;2.78;;;2.38;;
21729;SDS011;11027;51.030;13.812;2023-11-19T09:39:02;4.07;;;3.25;;
21729;SDS011;11027;51.030;13.812;2023-11-19T09:41:29;3.95;;;3.05;;
21729;SDS011;11027;51.030;13.812;2023-11-19T09:43:55;2.15;;;1.90;;
21729;SDS011;11027;51.030;13.812;2023-11-19T09:46:21;6.43;;;2.55;;
21729;SDS011;11027;51.030;13.812;2023-11-19T09:48:49;3.20;;;1.90;;
21729;SDS011;11027;51.030;13.812;2023-11-19T09:51:19;5.15;;;3.80;;
21729;SDS011;11027;51.030;13.812;2023-11-19T09:53:45;4.35;;;3.42;;
21729;SDS011;11027;51.030;13.812;2023-11-19T09:56:10;4.55;;;3.08;;
21729;SDS011;11027;51.030;13.812;2023-11-19T09:58:36;3.45;;;2.47;;
21729;SDS011;11027;51.030;13.812;2023-11-19T10:01:02;3.03;;;2.30;;
21729;SDS011;11027;51.030;13.812;2023-11-19T10:03:36;2.95;;;2.38;;
21729;SDS011;11027;51.030;13.812;2023-11-19T10:06:08;4.50;;;2.85;;
21729;SDS011;11027;51.030;13.812;2023-11-19T10:08:36;3.88;;;2.90;;
21729;SDS011;11027;51.030;13.812;2023-11-19T10:11:02;5.70;;;3.10;;
21729;SDS011;11027;51.030;13.812;2023-11-19T10:13:28;4.07;;;2.90;;
21729;SDS011;11027;51.030;13.812;2023-11-19T10:15:54;4.03;;;3.13;;
21729;SDS011;11027;51.030;13.812;2023-11-19T10:18:24;6.43;;;2.92;;
21729;SDS011;11027;51.030;13.812;2023-11-19T10:20:51;3.25;;;2.85;;
21729;SDS011;11027;51.030;13.812;2023-11-19T10:23:16;6.28;;;2.30;;
21729;SDS011;11027;51.030;13.812;2023-11-19T10:25:41;5.47;;;1.90;;
21729;SDS011;11027;51.030;13.812;2023-11-19T10:28:06;3.13;;;1.90;;
21729;SDS011;11027;51.030;13.812;2023-11-19T10:30:32;4.78;;;3.00;;
21729;SDS011;11027;51.030;13.812;2023-11-19T10:33:09;6.65;;;1.20;;
21729;SDS011;11027;51.030;13.812;2023-11-19T10:35:57;4.13;;;0.90;;
21729;SDS011;11027;51.030;13.812;2023-11-19T10:38:22;4.97;;;0.82;;
21729;SDS011;11027;51.030;13.812;2023-11-19T10:40:49;1.67;;;1.00;;
21729;SDS011;11027;51.030;13.812;2023-11-19T10:43:18;4.95;;;1.35;;
21729;SDS011;11027;51.030;13.812;2023-11-19T10:45:44;3.17;;;0.90;;
21729;SDS011;11027;51.030;13.812;2023-11-19T10:48:10;2.95;;;0.90;;
21729;SDS011;11027;51.030;13.812;2023-11-19T10:50:37;4.05;;;1.23;;
21729;SDS011;11027;51.030;13.812;2023-11-19T10:53:04;4.10;;;0.98;;
21729;SDS011;11027;51.030;13.812;2023-11-19T10:55:31;2.83;;;0.90;;
21729;SDS011;11027;51.030;13.812;2023-11-19T10:57:58;2.35;;;1.00;;
21729;SDS011;11027;51.030;13.812;2023-11-19T11:00:26;6.05;;;1.15;;
21729;SDS011;11027;51.030;13.812;2023-11-19T11:02:54;3.75;;;0.70;;
21729;SDS011;11027;51.030;13.812;2023-11-19T11:05:24;1.70;;;0.70;;
21729;SDS011;11027;51.030;13.812;2023-11-19T11:07:51;6.75;;;1.65;;
21729;SDS011;11027;51.030;13.812;2023-11-19T11:10:20;2.03;;;0.60;;
21729;SDS011;11027;51.030;13.812;2023-11-19T11:12:51;5.07;;;0.70;;
21729;SDS011;11027;51.030;13.812;2023-11-19T11:15:22;1.88;;;0.75;;
21729;SDS011;11027;51.030;13.812;2023-11-19T11:17:51;3.35;;;0.80;;
21729;SDS011;11027;51.030;13.812;2023-11-19T11:20:22;3.97;;;0.80;;
21729;SDS011;11027;51.030;13.812;2023-11-19T11:22:57;2.30;;;0.73;;
21729;SDS011;11027;51.030;13.812;2023-11-19T11:25:39;3.40;;;1.10;;
21729;SDS011;11027;51.030;13.812;2023-11-19T11:31:15;2.35;;;0.73;;
21729;SDS011;11027;51.030;13.812;2023-11-19T11:39:28;1.83;;;0.75;;
21729;SDS011;11027;51.030;13.812;2023-11-19T11:42:39;3.35;;;0.68;;
21729;SDS011;11027;51.030;13.812;2023-11-19T11:50:19;3.20;;;1.02;;
21729;SDS011;11027;51.030;13.812;2023-11-19T11:56:09;7.00;;;1.02;;
21729;SDS011;11027;51.030;13.812;2023-11-19T11:58:18;3.15;;;0.70;;
21729;SDS011;11027;51.030;13.812;2023-11-19T12:00:50;4.95;;;0.93;;
21729;SDS011;11027;51.030;13.812;2023-11-19T12:03:18;5.68;;;1.00;;
21729;SDS011;11027;51.030;13.812;2023-11-19T12:05:46;3.08;;;1.05;;
21729;SDS011;11027;51.030;13.812;2023-11-19T12:08:13;5.80;;;1.13;;
21729;SDS011;11027;51.030;13.812;2023-11-19T12:10:45;7.28;;;1.35;;
21729;SDS011;11027;51.030;13.812;2023-11-19T12:13:12;5.22;;;1.30;;
21729;SDS011;11027;51.030;13.812;2023-11-19T12:20:52;6.78;;;1.25;;
21729;SDS011;11027;51.030;13.812;2023-11-19T12:23:17;8.63;;;1.60;;
21729;SDS011;11027;51.030;13.812;2023-11-19T12:25:42;8.68;;;1.67;;
21729;SDS011;11027;51.030;13.812;2023-11-19T12:28:13;5.47;;;1.35;;
21729;SDS011;11027;51.030;13.812;2023-11-19T12:30:42;6.28;;;1.45;;
21729;SDS011;11027;51.030;13.812;2023-11-19T12:33:08;8.18;;;1.23;;
21729;SDS011;11027;51.030;13.812;2023-11-19T12:35:38;8.15;;;1.40;;
21729;SDS011;11027;51.030;13.812;2023-11-19T12:38:25;6.47;;;1.50;;
21729;SDS011;11027;51.030;13.812;2023-11-19T12:41:12;6.75;;;1.40;;
21729;SDS011;11027;51.030;13.812;2023-11-19T12:43:37;8.27;;;2.13;;
21729;SDS011;11027;51.030;13.812;2023-11-19T12:46:24;4.38;;;1.50;;
21729;SDS011;11027;51.030;13.812;2023-11-19T12:48:49;9.13;;;1.45;;
21729;SDS011;11027;51.030;13.812;2023-11-19T12:51:15;8.48;;;2.03;;
21729;SDS011;11027;51.030;13.812;2023-11-19T12:53:50;6.47;;;1.67;;
21729;SDS011;11027;51.030;13.812;2023-11-19T12:56:20;6.03;;;1.23;;
21729;SDS011;11027;51.030;13.812;2023-11-19T12:58:46;7.05;;;1.85;;
21729;SDS011;11027;51.030;13.812;2023-11-19T13:01:15;8.20;;;1.58;;
21729;SDS011;11027;51.030;13.812;2023-11-19T13:03:41;7.05;;;1.80;;
21729;SDS011;11027;51.030;13.812;2023-11-19T13:06:07;9.55;;;1.95;;
21729;SDS011;11027;51.030;13.812;2023-11-19T13:08:38;9.88;;;1.90;;
21729;SDS011;11027;51.030;13.812;2023-11-19T13:11:04;6.15;;;1.60;;
21729;SDS011;11027;51.030;13.812;2023-11-19T13:13:31;8.68;;;1.92;;
21729;SDS011;11027;51.030;13.812;2023-11-19T13:16:03;7.60;;;1.77;;
21729;SDS011;11027;51.030;13.812;2023-11-19T13:18:30;7.95;;;2.03;;
21729;SDS011;11027;51.030;13.812;2023-11-19T13:20:55;8.95;;;1.42;;
21729;SDS011;11027;51.030;13.812;2023-11-19T13:23:22;8.65;;;1.60;;
21729;SDS011;11027;51.030;13.812;2023-11-19T13:25:47;8.85;;;1.92;;
21729;SDS011;11027;51.030;13.812;2023-11-19T13:28:13;8.82;;;1.80;;
21729;SDS011;11027;51.030;13.812;2023-11-19T13:30:39;6.78;;;1.42;;
21729;SDS011;11027;51.030;13.812;2023-11-19T13:33:04;8.93;;;2.13;;
21729;SDS011;11027;51.030;13.812;2023-11-19T13:35:29;8.73;;;1.90;;
21729;SDS011;11027;51.030;13.812;2023-11-19T13:37:54;6.82;;;1.73;;
21729;SDS011;11027;51.030;13.812;2023-11-19T13:40:20;10.32;;;1.83;;
21729;SDS011;11027;51.030;13.812;2023-11-19T13:42:47;12.55;;;2.60;;
21729;SDS011;11027;51.030;13.812;2023-11-19T13:45:13;9.85;;;2.65;;
21729;SDS011;11027;51.030;13.812;2023-11-19T13:47:39;12.85;;;2.50;;
21729;SDS011;11027;51.030;13.812;2023-11-19T13:50:09;6.50;;;1.75;;
21729;SDS011;11027;51.030;13.812;2023-11-19T13:52:37;10.20;;;2.42;;
21729;SDS011;11027;51.030;13.812;2023-11-19T13:55:06;10.15;;;1.90;;
21729;SDS011;11027;51.030;13.812;2023-11-19T13:57:33;10.80;;;2.65;;
21729;SDS011;11027;51.030;13.812;2023-11-19T13:59:59;9.77;;;2.00;;
21729;SDS011;11027;51.030;13.812;2023-11-19T14:02:25;11.23;;;2.60;;
21729;SDS011;11027;51.030;13.812;2023-11-19T14:04:50;10.23;;;2.30;;
21729;SDS011;11027;51.030;13.812;2023-11-19T14:07:16;11.90;;;3.05;;
21729;SDS011;11027;51.030;13.812;2023-11-19T14:09:44;9.85;;;1.90;;
21729;SDS011;11027;51.030;13.812;2023-11-19T14:12:10;9.70;;;2.00;;
21729;SDS011;11027;51.030;13.812;2023-11-19T14:14:37;13.07;;;2.63;;
21729;SDS011;11027;51.030;13.812;2023-11-19T14:17:04;9.23;;;2.20;;
21729;SDS011;11027;51.030;13.812;2023-11-19T14:19:29;11.45;;;2.22;;
21729;SDS011;11027;51.030;13.812;2023-11-19T14:21:54;11.90;;;2.83;;
21729;SDS011;11027;51.030;13.812;2023-11-19T14:24:20;11.40;;;2.67;;
21729;SDS011;11027;51.030;13.812;2023-11-19T14:26:46;13.13;;;2.45;;
21729;SDS011;11027;51.030;13.812;2023-11-19T14:29:12;9.77;;;2.10;;
21729;SDS011;11027;51.030;13.812;2023-11-19T14:31:37;11.55;;;2.33;;
21729;SDS011;11027;51.030;13.812;2023-11-19T14:34:03;11.90;;;2.33;;
21729;SDS011;11027;51.030;13.812;2023-11-19T14:36:28;8.60;;;1.90;;
21729;SDS011;11027;51.030;13.812;2023-11-19T14:38:53;11.93;;;2.17;;
21729;SDS011;11027;51.030;13.812;2023-11-19T14:41:19;11.48;;;2.38;;
21729;SDS011;11027;51.030;13.812;2023-11-19T14:43:44;13.32;;;2.60;;
21729;SDS011;11027;51.030;13.812;2023-11-19T14:46:09;13.00;;;2.53;;
21729;SDS011;11027;51.030;13.812;2023-11-19T14:48:34;10.68;;;2.38;;
21729;SDS011;11027;51.030;13.812;2023-11-19T14:51:00;14.75;;;2.20;;
21729;SDS011;11027;51.030;13.812;2023-11-19T14:53:26;9.60;;;2.00;;